<?xml version="1.0" encoding="UTF-8" standalone="no" ?>
<gpx xmlns="http://www.topografix.com/GPX/1/1" xmlns:xsi="http://www.w3.org/2001/XMLSchema-instance" xsi:schemaLocation="http://www.topografix.com/GPX/1/1 http://www.topografix.com/GPX/1/1/gpx.xsd" version="1.1" creator="VisuGPX - https://www.visugpx.com">
  <metadata>
    <name>cozzano sampolo</name>
    <desc><![CDATA[randonnee dans la vallee du taravo]]></desc>
  </metadata>
  <trk>
    <name><![CDATA[Cozzano sampolo]]></name>
    <trkseg>
      <trkpt lat="41.9329" lon="9.15245">
        <ele>744.72</ele>
        <time>2014-08-10T12:13:00Z</time>
      </trkpt>
      <trkpt lat="41.9329" lon="9.15245">
        <ele>744.72</ele>
        <time>2014-08-10T12:13:01Z</time>
      </trkpt>
      <trkpt lat="41.93296" lon="9.15241">
        <ele>747.42</ele>
        <time>2014-08-10T12:13:33Z</time>
      </trkpt>
      <trkpt lat="41.93295" lon="9.1524">
        <ele>745.2</ele>
        <time>2014-08-10T12:13:39Z</time>
      </trkpt>
      <trkpt lat="41.93295" lon="9.1524">
        <ele>745.2</ele>
        <time>2014-08-10T12:13:40Z</time>
      </trkpt>
      <trkpt lat="41.93295" lon="9.1524">
        <ele>745.19</ele>
        <time>2014-08-10T12:13:44Z</time>
      </trkpt>
      <trkpt lat="41.93289" lon="9.1524">
        <ele>744.98</ele>
        <time>2014-08-10T12:14:09Z</time>
      </trkpt>
      <trkpt lat="41.93289" lon="9.15238">
        <ele>744.99</ele>
        <time>2014-08-10T12:14:38Z</time>
      </trkpt>
      <trkpt lat="41.93289" lon="9.15248">
        <ele>745.12</ele>
        <time>2014-08-10T12:14:56Z</time>
      </trkpt>
      <trkpt lat="41.93291" lon="9.15255">
        <ele>745.32</ele>
        <time>2014-08-10T12:15:07Z</time>
      </trkpt>
      <trkpt lat="41.93293" lon="9.15237">
        <ele>744.43</ele>
        <time>2014-08-10T12:15:29Z</time>
      </trkpt>
      <trkpt lat="41.93287" lon="9.1522">
        <ele>741.28</ele>
        <time>2014-08-10T12:15:58Z</time>
      </trkpt>
      <trkpt lat="41.93285" lon="9.15203">
        <ele>738.78</ele>
        <time>2014-08-10T12:16:12Z</time>
      </trkpt>
      <trkpt lat="41.93287" lon="9.15196">
        <ele>737.15</ele>
        <time>2014-08-10T12:16:26Z</time>
      </trkpt>
      <trkpt lat="41.93289" lon="9.15195">
        <ele>737.19</ele>
        <time>2014-08-10T12:16:51Z</time>
      </trkpt>
      <trkpt lat="41.9329" lon="9.15192">
        <ele>736.79</ele>
        <time>2014-08-10T12:17:21Z</time>
      </trkpt>
      <trkpt lat="41.93284" lon="9.15183">
        <ele>736.15</ele>
        <time>2014-08-10T12:17:40Z</time>
      </trkpt>
      <trkpt lat="41.93287" lon="9.15167">
        <ele>735.34</ele>
        <time>2014-08-10T12:17:53Z</time>
      </trkpt>
      <trkpt lat="41.93293" lon="9.15151">
        <ele>734.4</ele>
        <time>2014-08-10T12:18:06Z</time>
      </trkpt>
      <trkpt lat="41.93296" lon="9.15141">
        <ele>733.81</ele>
        <time>2014-08-10T12:18:22Z</time>
      </trkpt>
      <trkpt lat="41.93295" lon="9.15141">
        <ele>733.62</ele>
        <time>2014-08-10T12:18:50Z</time>
      </trkpt>
      <trkpt lat="41.93298" lon="9.15137">
        <ele>733.38</ele>
        <time>2014-08-10T12:19:09Z</time>
      </trkpt>
      <trkpt lat="41.93297" lon="9.15135">
        <ele>732.92</ele>
        <time>2014-08-10T12:19:41Z</time>
      </trkpt>
      <trkpt lat="41.93297" lon="9.15135">
        <ele>732.54</ele>
        <time>2014-08-10T12:20:20Z</time>
      </trkpt>
      <trkpt lat="41.93297" lon="9.15137">
        <ele>732.2</ele>
        <time>2014-08-10T12:20:42Z</time>
      </trkpt>
      <trkpt lat="41.933" lon="9.15122">
        <ele>732.03</ele>
        <time>2014-08-10T12:21:00Z</time>
      </trkpt>
      <trkpt lat="41.93297" lon="9.15106">
        <ele>729.64</ele>
        <time>2014-08-10T12:21:15Z</time>
      </trkpt>
      <trkpt lat="41.93292" lon="9.15089">
        <ele>727.29</ele>
        <time>2014-08-10T12:21:30Z</time>
      </trkpt>
      <trkpt lat="41.93288" lon="9.15064">
        <ele>724.28</ele>
        <time>2014-08-10T12:21:49Z</time>
      </trkpt>
      <trkpt lat="41.93284" lon="9.15049">
        <ele>722.5</ele>
        <time>2014-08-10T12:22:02Z</time>
      </trkpt>
      <trkpt lat="41.93276" lon="9.15032">
        <ele>720.05</ele>
        <time>2014-08-10T12:22:18Z</time>
      </trkpt>
      <trkpt lat="41.93277" lon="9.15027">
        <ele>719.09</ele>
        <time>2014-08-10T12:22:22Z</time>
      </trkpt>
      <trkpt lat="41.9328" lon="9.1501">
        <ele>717.23</ele>
        <time>2014-08-10T12:22:34Z</time>
      </trkpt>
      <trkpt lat="41.93288" lon="9.14997">
        <ele>715.82</ele>
        <time>2014-08-10T12:22:45Z</time>
      </trkpt>
      <trkpt lat="41.93291" lon="9.14992">
        <ele>715.36</ele>
        <time>2014-08-10T12:22:49Z</time>
      </trkpt>
      <trkpt lat="41.93304" lon="9.14973">
        <ele>712.19</ele>
        <time>2014-08-10T12:23:09Z</time>
      </trkpt>
      <trkpt lat="41.93319" lon="9.14954">
        <ele>710.07</ele>
        <time>2014-08-10T12:23:29Z</time>
      </trkpt>
      <trkpt lat="41.93323" lon="9.14949">
        <ele>709.53</ele>
        <time>2014-08-10T12:23:34Z</time>
      </trkpt>
      <trkpt lat="41.93329" lon="9.14936">
        <ele>708.82</ele>
        <time>2014-08-10T12:23:44Z</time>
      </trkpt>
      <trkpt lat="41.93329" lon="9.14926">
        <ele>708.42</ele>
        <time>2014-08-10T12:23:51Z</time>
      </trkpt>
      <trkpt lat="41.9333" lon="9.14921">
        <ele>708.29</ele>
        <time>2014-08-10T12:23:54Z</time>
      </trkpt>
      <trkpt lat="41.93334" lon="9.14904">
        <ele>707.73</ele>
        <time>2014-08-10T12:24:06Z</time>
      </trkpt>
      <trkpt lat="41.93344" lon="9.14884">
        <ele>707.35</ele>
        <time>2014-08-10T12:24:21Z</time>
      </trkpt>
      <trkpt lat="41.93354" lon="9.14876">
        <ele>706.95</ele>
        <time>2014-08-10T12:24:34Z</time>
      </trkpt>
      <trkpt lat="41.9337" lon="9.14873">
        <ele>706.56</ele>
        <time>2014-08-10T12:24:47Z</time>
      </trkpt>
      <trkpt lat="41.93378" lon="9.14871">
        <ele>706.57</ele>
        <time>2014-08-10T12:24:59Z</time>
      </trkpt>
      <trkpt lat="41.93393" lon="9.1485">
        <ele>706.06</ele>
        <time>2014-08-10T12:25:15Z</time>
      </trkpt>
      <trkpt lat="41.93404" lon="9.1484">
        <ele>706.04</ele>
        <time>2014-08-10T12:25:28Z</time>
      </trkpt>
      <trkpt lat="41.93425" lon="9.14819">
        <ele>705.46</ele>
        <time>2014-08-10T12:25:50Z</time>
      </trkpt>
      <trkpt lat="41.93429" lon="9.14816">
        <ele>705.17</ele>
        <time>2014-08-10T12:25:55Z</time>
      </trkpt>
      <trkpt lat="41.93438" lon="9.14812">
        <ele>704.65</ele>
        <time>2014-08-10T12:26:07Z</time>
      </trkpt>
      <trkpt lat="41.93451" lon="9.14801">
        <ele>704.71</ele>
        <time>2014-08-10T12:26:23Z</time>
      </trkpt>
      <trkpt lat="41.93466" lon="9.14795">
        <ele>701.8</ele>
        <time>2014-08-10T12:26:42Z</time>
      </trkpt>
      <trkpt lat="41.93483" lon="9.14798">
        <ele>698.9</ele>
        <time>2014-08-10T12:27:00Z</time>
      </trkpt>
      <trkpt lat="41.93498" lon="9.14793">
        <ele>697.14</ele>
        <time>2014-08-10T12:27:14Z</time>
      </trkpt>
      <trkpt lat="41.93517" lon="9.14784">
        <ele>696.27</ele>
        <time>2014-08-10T12:27:33Z</time>
      </trkpt>
      <trkpt lat="41.93532" lon="9.1477">
        <ele>697.54</ele>
        <time>2014-08-10T12:27:53Z</time>
      </trkpt>
      <trkpt lat="41.93531" lon="9.14755">
        <ele>699.82</ele>
        <time>2014-08-10T12:28:08Z</time>
      </trkpt>
      <trkpt lat="41.93527" lon="9.14725">
        <ele>698.81</ele>
        <time>2014-08-10T12:28:31Z</time>
      </trkpt>
      <trkpt lat="41.93531" lon="9.14708">
        <ele>695.78</ele>
        <time>2014-08-10T12:28:52Z</time>
      </trkpt>
      <trkpt lat="41.93528" lon="9.14698">
        <ele>693.76</ele>
        <time>2014-08-10T12:29:08Z</time>
      </trkpt>
      <trkpt lat="41.93533" lon="9.14689">
        <ele>690.86</ele>
        <time>2014-08-10T12:29:26Z</time>
      </trkpt>
      <trkpt lat="41.93531" lon="9.14679">
        <ele>688.91</ele>
        <time>2014-08-10T12:29:42Z</time>
      </trkpt>
      <trkpt lat="41.93533" lon="9.14669">
        <ele>686</ele>
        <time>2014-08-10T12:30:01Z</time>
      </trkpt>
      <trkpt lat="41.93533" lon="9.14653">
        <ele>683.39</ele>
        <time>2014-08-10T12:30:20Z</time>
      </trkpt>
      <trkpt lat="41.93533" lon="9.1464">
        <ele>682.08</ele>
        <time>2014-08-10T12:30:37Z</time>
      </trkpt>
      <trkpt lat="41.93529" lon="9.14631">
        <ele>681.31</ele>
        <time>2014-08-10T12:30:50Z</time>
      </trkpt>
      <trkpt lat="41.93525" lon="9.14624">
        <ele>679.41</ele>
        <time>2014-08-10T12:31:07Z</time>
      </trkpt>
      <trkpt lat="41.93522" lon="9.1462">
        <ele>678.32</ele>
        <time>2014-08-10T12:31:22Z</time>
      </trkpt>
      <trkpt lat="41.93516" lon="9.14615">
        <ele>675.93</ele>
        <time>2014-08-10T12:31:44Z</time>
      </trkpt>
      <trkpt lat="41.93511" lon="9.14603">
        <ele>673.59</ele>
        <time>2014-08-10T12:32:06Z</time>
      </trkpt>
      <trkpt lat="41.93508" lon="9.14594">
        <ele>672.08</ele>
        <time>2014-08-10T12:32:18Z</time>
      </trkpt>
      <trkpt lat="41.93506" lon="9.14576">
        <ele>670.79</ele>
        <time>2014-08-10T12:32:34Z</time>
      </trkpt>
      <trkpt lat="41.93504" lon="9.14566">
        <ele>670.01</ele>
        <time>2014-08-10T12:32:46Z</time>
      </trkpt>
      <trkpt lat="41.93501" lon="9.14552">
        <ele>667.78</ele>
        <time>2014-08-10T12:33:04Z</time>
      </trkpt>
      <trkpt lat="41.935" lon="9.1454">
        <ele>666.64</ele>
        <time>2014-08-10T12:33:17Z</time>
      </trkpt>
      <trkpt lat="41.93493" lon="9.14531">
        <ele>664.54</ele>
        <time>2014-08-10T12:33:34Z</time>
      </trkpt>
      <trkpt lat="41.93495" lon="9.14525">
        <ele>662.65</ele>
        <time>2014-08-10T12:33:54Z</time>
      </trkpt>
      <trkpt lat="41.93494" lon="9.14513">
        <ele>660.45</ele>
        <time>2014-08-10T12:34:09Z</time>
      </trkpt>
      <trkpt lat="41.93489" lon="9.14497">
        <ele>658.22</ele>
        <time>2014-08-10T12:34:30Z</time>
      </trkpt>
      <trkpt lat="41.93494" lon="9.14496">
        <ele>656.69</ele>
        <time>2014-08-10T12:34:46Z</time>
      </trkpt>
      <trkpt lat="41.93503" lon="9.14497">
        <ele>654.7</ele>
        <time>2014-08-10T12:35:02Z</time>
      </trkpt>
      <trkpt lat="41.9351" lon="9.14499">
        <ele>653.19</ele>
        <time>2014-08-10T12:35:14Z</time>
      </trkpt>
      <trkpt lat="41.93506" lon="9.14496">
        <ele>651.75</ele>
        <time>2014-08-10T12:35:30Z</time>
      </trkpt>
      <trkpt lat="41.93506" lon="9.1449">
        <ele>649.99</ele>
        <time>2014-08-10T12:35:47Z</time>
      </trkpt>
      <trkpt lat="41.93508" lon="9.14476">
        <ele>647.41</ele>
        <time>2014-08-10T12:36:16Z</time>
      </trkpt>
      <trkpt lat="41.93508" lon="9.14471">
        <ele>646.83</ele>
        <time>2014-08-10T12:36:23Z</time>
      </trkpt>
      <trkpt lat="41.93505" lon="9.14457">
        <ele>645.52</ele>
        <time>2014-08-10T12:36:36Z</time>
      </trkpt>
      <trkpt lat="41.93505" lon="9.14443">
        <ele>645.43</ele>
        <time>2014-08-10T12:36:50Z</time>
      </trkpt>
      <trkpt lat="41.93505" lon="9.14433">
        <ele>646.52</ele>
        <time>2014-08-10T12:37:05Z</time>
      </trkpt>
      <trkpt lat="41.93506" lon="9.14425">
        <ele>647.81</ele>
        <time>2014-08-10T12:37:14Z</time>
      </trkpt>
      <trkpt lat="41.93504" lon="9.1441">
        <ele>648.81</ele>
        <time>2014-08-10T12:37:30Z</time>
      </trkpt>
      <trkpt lat="41.93502" lon="9.14395">
        <ele>649.27</ele>
        <time>2014-08-10T12:37:43Z</time>
      </trkpt>
      <trkpt lat="41.935" lon="9.14382">
        <ele>650.4</ele>
        <time>2014-08-10T12:37:56Z</time>
      </trkpt>
      <trkpt lat="41.93503" lon="9.14368">
        <ele>650.38</ele>
        <time>2014-08-10T12:38:07Z</time>
      </trkpt>
      <trkpt lat="41.93507" lon="9.14356">
        <ele>649.7</ele>
        <time>2014-08-10T12:38:20Z</time>
      </trkpt>
      <trkpt lat="41.9351" lon="9.14349">
        <ele>647.52</ele>
        <time>2014-08-10T12:38:39Z</time>
      </trkpt>
      <trkpt lat="41.93514" lon="9.14338">
        <ele>645.38</ele>
        <time>2014-08-10T12:38:57Z</time>
      </trkpt>
      <trkpt lat="41.93514" lon="9.14336">
        <ele>645.01</ele>
        <time>2014-08-10T12:39:27Z</time>
      </trkpt>
      <trkpt lat="41.93517" lon="9.14335">
        <ele>644.71</ele>
        <time>2014-08-10T12:40:00Z</time>
      </trkpt>
      <trkpt lat="41.93517" lon="9.14335">
        <ele>643.83</ele>
        <time>2014-08-10T12:40:35Z</time>
      </trkpt>
      <trkpt lat="41.9352" lon="9.14339">
        <ele>641.65</ele>
        <time>2014-08-10T12:40:53Z</time>
      </trkpt>
      <trkpt lat="41.9352" lon="9.14327">
        <ele>639.44</ele>
        <time>2014-08-10T12:41:10Z</time>
      </trkpt>
      <trkpt lat="41.93516" lon="9.14319">
        <ele>637.99</ele>
        <time>2014-08-10T12:41:22Z</time>
      </trkpt>
      <trkpt lat="41.93514" lon="9.1431">
        <ele>635.98</ele>
        <time>2014-08-10T12:41:38Z</time>
      </trkpt>
      <trkpt lat="41.93513" lon="9.1431">
        <ele>635.55</ele>
        <time>2014-08-10T12:41:41Z</time>
      </trkpt>
      <trkpt lat="41.93519" lon="9.14308">
        <ele>632.61</ele>
        <time>2014-08-10T12:42:01Z</time>
      </trkpt>
      <trkpt lat="41.93523" lon="9.14289">
        <ele>629.73</ele>
        <time>2014-08-10T12:42:22Z</time>
      </trkpt>
      <trkpt lat="41.93522" lon="9.14275">
        <ele>628.18</ele>
        <time>2014-08-10T12:42:39Z</time>
      </trkpt>
      <trkpt lat="41.93521" lon="9.14268">
        <ele>627.46</ele>
        <time>2014-08-10T12:42:48Z</time>
      </trkpt>
      <trkpt lat="41.9352" lon="9.14259">
        <ele>626.99</ele>
        <time>2014-08-10T12:42:56Z</time>
      </trkpt>
      <trkpt lat="41.93525" lon="9.14249">
        <ele>626.11</ele>
        <time>2014-08-10T12:43:15Z</time>
      </trkpt>
      <trkpt lat="41.93532" lon="9.14239">
        <ele>624.51</ele>
        <time>2014-08-10T12:43:33Z</time>
      </trkpt>
      <trkpt lat="41.9353" lon="9.1423">
        <ele>623.2</ele>
        <time>2014-08-10T12:43:41Z</time>
      </trkpt>
      <trkpt lat="41.93527" lon="9.1422">
        <ele>623.57</ele>
        <time>2014-08-10T12:43:54Z</time>
      </trkpt>
      <trkpt lat="41.93527" lon="9.14214">
        <ele>624.44</ele>
        <time>2014-08-10T12:44:00Z</time>
      </trkpt>
      <trkpt lat="41.93544" lon="9.14212">
        <ele>624.96</ele>
        <time>2014-08-10T12:44:17Z</time>
      </trkpt>
      <trkpt lat="41.9355" lon="9.14208">
        <ele>624.83</ele>
        <time>2014-08-10T12:44:45Z</time>
      </trkpt>
      <trkpt lat="41.93559" lon="9.14205">
        <ele>624.87</ele>
        <time>2014-08-10T12:45:01Z</time>
      </trkpt>
      <trkpt lat="41.93578" lon="9.14196">
        <ele>624.92</ele>
        <time>2014-08-10T12:45:18Z</time>
      </trkpt>
      <trkpt lat="41.93583" lon="9.14193">
        <ele>624.82</ele>
        <time>2014-08-10T12:45:23Z</time>
      </trkpt>
      <trkpt lat="41.93596" lon="9.14184">
        <ele>625.1</ele>
        <time>2014-08-10T12:45:38Z</time>
      </trkpt>
      <trkpt lat="41.936" lon="9.14177">
        <ele>625.56</ele>
        <time>2014-08-10T12:45:44Z</time>
      </trkpt>
      <trkpt lat="41.93609" lon="9.14162">
        <ele>626.26</ele>
        <time>2014-08-10T12:45:56Z</time>
      </trkpt>
      <trkpt lat="41.9362" lon="9.14139">
        <ele>626.86</ele>
        <time>2014-08-10T12:46:13Z</time>
      </trkpt>
      <trkpt lat="41.93628" lon="9.14114">
        <ele>627.7</ele>
        <time>2014-08-10T12:46:30Z</time>
      </trkpt>
      <trkpt lat="41.93637" lon="9.14096">
        <ele>628.39</ele>
        <time>2014-08-10T12:46:44Z</time>
      </trkpt>
      <trkpt lat="41.93639" lon="9.14091">
        <ele>628.46</ele>
        <time>2014-08-10T12:46:47Z</time>
      </trkpt>
      <trkpt lat="41.9364" lon="9.14089">
        <ele>628.49</ele>
        <time>2014-08-10T12:46:49Z</time>
      </trkpt>
      <trkpt lat="41.93649" lon="9.14074">
        <ele>628.81</ele>
        <time>2014-08-10T12:47:02Z</time>
      </trkpt>
      <trkpt lat="41.93654" lon="9.1406">
        <ele>629.34</ele>
        <time>2014-08-10T12:47:13Z</time>
      </trkpt>
      <trkpt lat="41.93662" lon="9.14041">
        <ele>629.46</ele>
        <time>2014-08-10T12:47:26Z</time>
      </trkpt>
      <trkpt lat="41.93671" lon="9.14019">
        <ele>629.85</ele>
        <time>2014-08-10T12:47:43Z</time>
      </trkpt>
      <trkpt lat="41.93679" lon="9.14005">
        <ele>630.4</ele>
        <time>2014-08-10T12:47:56Z</time>
      </trkpt>
      <trkpt lat="41.9368" lon="9.14001">
        <ele>630.51</ele>
        <time>2014-08-10T12:47:58Z</time>
      </trkpt>
      <trkpt lat="41.9369" lon="9.13981">
        <ele>631.06</ele>
        <time>2014-08-10T12:48:13Z</time>
      </trkpt>
      <trkpt lat="41.93698" lon="9.13966">
        <ele>631.95</ele>
        <time>2014-08-10T12:48:27Z</time>
      </trkpt>
      <trkpt lat="41.93702" lon="9.13961">
        <ele>632.24</ele>
        <time>2014-08-10T12:48:31Z</time>
      </trkpt>
      <trkpt lat="41.93704" lon="9.13956">
        <ele>633</ele>
        <time>2014-08-10T12:48:43Z</time>
      </trkpt>
      <trkpt lat="41.93702" lon="9.13961">
        <ele>632.66</ele>
        <time>2014-08-10T12:49:09Z</time>
      </trkpt>
      <trkpt lat="41.93703" lon="9.13955">
        <ele>632.37</ele>
        <time>2014-08-10T12:49:34Z</time>
      </trkpt>
      <trkpt lat="41.937" lon="9.13953">
        <ele>632.31</ele>
        <time>2014-08-10T12:49:40Z</time>
      </trkpt>
      <trkpt lat="41.93698" lon="9.13949">
        <ele>632.35</ele>
        <time>2014-08-10T12:49:43Z</time>
      </trkpt>
      <trkpt lat="41.93682" lon="9.13922">
        <ele>633.07</ele>
        <time>2014-08-10T12:50:05Z</time>
      </trkpt>
      <trkpt lat="41.93679" lon="9.13913">
        <ele>633.08</ele>
        <time>2014-08-10T12:50:12Z</time>
      </trkpt>
      <trkpt lat="41.93674" lon="9.13908">
        <ele>633.33</ele>
        <time>2014-08-10T12:50:27Z</time>
      </trkpt>
      <trkpt lat="41.93673" lon="9.13907">
        <ele>633.42</ele>
        <time>2014-08-10T12:50:30Z</time>
      </trkpt>
      <trkpt lat="41.93659" lon="9.13898">
        <ele>634.08</ele>
        <time>2014-08-10T12:50:49Z</time>
      </trkpt>
      <trkpt lat="41.93649" lon="9.13894">
        <ele>634.67</ele>
        <time>2014-08-10T12:51:09Z</time>
      </trkpt>
      <trkpt lat="41.93638" lon="9.13897">
        <ele>634.41</ele>
        <time>2014-08-10T12:51:35Z</time>
      </trkpt>
      <trkpt lat="41.93632" lon="9.13897">
        <ele>634.16</ele>
        <time>2014-08-10T12:51:42Z</time>
      </trkpt>
      <trkpt lat="41.93616" lon="9.13901">
        <ele>633.73</ele>
        <time>2014-08-10T12:51:58Z</time>
      </trkpt>
      <trkpt lat="41.93597" lon="9.13887">
        <ele>635.04</ele>
        <time>2014-08-10T12:52:19Z</time>
      </trkpt>
      <trkpt lat="41.93582" lon="9.13875">
        <ele>635.56</ele>
        <time>2014-08-10T12:52:35Z</time>
      </trkpt>
      <trkpt lat="41.93564" lon="9.13858">
        <ele>635.08</ele>
        <time>2014-08-10T12:52:54Z</time>
      </trkpt>
      <trkpt lat="41.93548" lon="9.13846">
        <ele>634.92</ele>
        <time>2014-08-10T12:53:10Z</time>
      </trkpt>
      <trkpt lat="41.93528" lon="9.13832">
        <ele>635.41</ele>
        <time>2014-08-10T12:53:30Z</time>
      </trkpt>
      <trkpt lat="41.93509" lon="9.13812">
        <ele>635.84</ele>
        <time>2014-08-10T12:53:49Z</time>
      </trkpt>
      <trkpt lat="41.935" lon="9.13803">
        <ele>635.98</ele>
        <time>2014-08-10T12:53:59Z</time>
      </trkpt>
      <trkpt lat="41.93487" lon="9.13792">
        <ele>636.54</ele>
        <time>2014-08-10T12:54:13Z</time>
      </trkpt>
      <trkpt lat="41.93476" lon="9.13782">
        <ele>637.69</ele>
        <time>2014-08-10T12:54:31Z</time>
      </trkpt>
      <trkpt lat="41.93468" lon="9.13764">
        <ele>639.32</ele>
        <time>2014-08-10T12:54:51Z</time>
      </trkpt>
      <trkpt lat="41.93464" lon="9.13759">
        <ele>639.58</ele>
        <time>2014-08-10T12:55:11Z</time>
      </trkpt>
      <trkpt lat="41.93465" lon="9.13757">
        <ele>639.21</ele>
        <time>2014-08-10T12:55:43Z</time>
      </trkpt>
      <trkpt lat="41.93463" lon="9.13757">
        <ele>639.18</ele>
        <time>2014-08-10T12:56:19Z</time>
      </trkpt>
      <trkpt lat="41.9346" lon="9.13753">
        <ele>638.96</ele>
        <time>2014-08-10T12:56:51Z</time>
      </trkpt>
      <trkpt lat="41.9346" lon="9.13754">
        <ele>638.57</ele>
        <time>2014-08-10T12:57:24Z</time>
      </trkpt>
      <trkpt lat="41.93462" lon="9.13755">
        <ele>638.6</ele>
        <time>2014-08-10T12:57:41Z</time>
      </trkpt>
      <trkpt lat="41.93462" lon="9.13755">
        <ele>638.61</ele>
        <time>2014-08-10T12:58:01Z</time>
      </trkpt>
      <trkpt lat="41.93461" lon="9.13755">
        <ele>638.37</ele>
        <time>2014-08-10T12:58:32Z</time>
      </trkpt>
      <trkpt lat="41.9346" lon="9.13756">
        <ele>638.2</ele>
        <time>2014-08-10T12:59:01Z</time>
      </trkpt>
      <trkpt lat="41.93467" lon="9.13756">
        <ele>637.63</ele>
        <time>2014-08-10T13:00:04Z</time>
      </trkpt>
      <trkpt lat="41.93466" lon="9.13754">
        <ele>637.32</ele>
        <time>2014-08-10T13:00:31Z</time>
      </trkpt>
      <trkpt lat="41.93466" lon="9.13756">
        <ele>637.09</ele>
        <time>2014-08-10T13:01:08Z</time>
      </trkpt>
      <trkpt lat="41.93464" lon="9.13764">
        <ele>636.73</ele>
        <time>2014-08-10T13:02:03Z</time>
      </trkpt>
      <trkpt lat="41.93469" lon="9.13776">
        <ele>635.77</ele>
        <time>2014-08-10T13:02:17Z</time>
      </trkpt>
      <trkpt lat="41.93476" lon="9.13788">
        <ele>634.98</ele>
        <time>2014-08-10T13:02:27Z</time>
      </trkpt>
      <trkpt lat="41.93491" lon="9.13804">
        <ele>633.18</ele>
        <time>2014-08-10T13:02:44Z</time>
      </trkpt>
      <trkpt lat="41.935" lon="9.13816">
        <ele>631.97</ele>
        <time>2014-08-10T13:02:57Z</time>
      </trkpt>
      <trkpt lat="41.93512" lon="9.13829">
        <ele>631.59</ele>
        <time>2014-08-10T13:03:10Z</time>
      </trkpt>
      <trkpt lat="41.93517" lon="9.13831">
        <ele>631.48</ele>
        <time>2014-08-10T13:03:14Z</time>
      </trkpt>
      <trkpt lat="41.93527" lon="9.13839">
        <ele>631.09</ele>
        <time>2014-08-10T13:03:24Z</time>
      </trkpt>
      <trkpt lat="41.93536" lon="9.13847">
        <ele>630.7</ele>
        <time>2014-08-10T13:03:34Z</time>
      </trkpt>
      <trkpt lat="41.93556" lon="9.13867">
        <ele>630.13</ele>
        <time>2014-08-10T13:03:57Z</time>
      </trkpt>
      <trkpt lat="41.93564" lon="9.13875">
        <ele>629.99</ele>
        <time>2014-08-10T13:04:06Z</time>
      </trkpt>
      <trkpt lat="41.93567" lon="9.13878">
        <ele>630.07</ele>
        <time>2014-08-10T13:04:09Z</time>
      </trkpt>
      <trkpt lat="41.93572" lon="9.13882">
        <ele>630.15</ele>
        <time>2014-08-10T13:04:13Z</time>
      </trkpt>
      <trkpt lat="41.9359" lon="9.13896">
        <ele>629.85</ele>
        <time>2014-08-10T13:04:32Z</time>
      </trkpt>
      <trkpt lat="41.93602" lon="9.139">
        <ele>628.84</ele>
        <time>2014-08-10T13:04:44Z</time>
      </trkpt>
      <trkpt lat="41.93612" lon="9.13899">
        <ele>628.19</ele>
        <time>2014-08-10T13:04:54Z</time>
      </trkpt>
      <trkpt lat="41.93615" lon="9.13898">
        <ele>628.03</ele>
        <time>2014-08-10T13:04:57Z</time>
      </trkpt>
      <trkpt lat="41.93638" lon="9.13898">
        <ele>627.6</ele>
        <time>2014-08-10T13:05:14Z</time>
      </trkpt>
      <trkpt lat="41.93641" lon="9.13884">
        <ele>628.16</ele>
        <time>2014-08-10T13:05:26Z</time>
      </trkpt>
      <trkpt lat="41.93633" lon="9.13875">
        <ele>629.64</ele>
        <time>2014-08-10T13:05:43Z</time>
      </trkpt>
      <trkpt lat="41.93622" lon="9.13876">
        <ele>631.94</ele>
        <time>2014-08-10T13:06:04Z</time>
      </trkpt>
      <trkpt lat="41.93613" lon="9.13876">
        <ele>634.13</ele>
        <time>2014-08-10T13:06:23Z</time>
      </trkpt>
      <trkpt lat="41.93608" lon="9.13866">
        <ele>636.37</ele>
        <time>2014-08-10T13:06:44Z</time>
      </trkpt>
      <trkpt lat="41.93614" lon="9.13855">
        <ele>638.81</ele>
        <time>2014-08-10T13:07:06Z</time>
      </trkpt>
      <trkpt lat="41.93615" lon="9.13841">
        <ele>640.19</ele>
        <time>2014-08-10T13:07:22Z</time>
      </trkpt>
      <trkpt lat="41.93611" lon="9.13827">
        <ele>642.46</ele>
        <time>2014-08-10T13:07:46Z</time>
      </trkpt>
      <trkpt lat="41.93605" lon="9.13809">
        <ele>644.97</ele>
        <time>2014-08-10T13:08:06Z</time>
      </trkpt>
      <trkpt lat="41.93594" lon="9.13793">
        <ele>646.57</ele>
        <time>2014-08-10T13:08:25Z</time>
      </trkpt>
      <trkpt lat="41.93585" lon="9.13772">
        <ele>647.58</ele>
        <time>2014-08-10T13:08:45Z</time>
      </trkpt>
      <trkpt lat="41.93577" lon="9.1375">
        <ele>648.44</ele>
        <time>2014-08-10T13:09:06Z</time>
      </trkpt>
      <trkpt lat="41.93573" lon="9.13737">
        <ele>649.18</ele>
        <time>2014-08-10T13:09:23Z</time>
      </trkpt>
      <trkpt lat="41.9357" lon="9.13718">
        <ele>650.36</ele>
        <time>2014-08-10T13:09:43Z</time>
      </trkpt>
      <trkpt lat="41.93566" lon="9.137">
        <ele>652.24</ele>
        <time>2014-08-10T13:10:02Z</time>
      </trkpt>
      <trkpt lat="41.93563" lon="9.13693">
        <ele>653.52</ele>
        <time>2014-08-10T13:10:24Z</time>
      </trkpt>
      <trkpt lat="41.93562" lon="9.1369">
        <ele>653.68</ele>
        <time>2014-08-10T13:10:30Z</time>
      </trkpt>
      <trkpt lat="41.93562" lon="9.13669">
        <ele>655.43</ele>
        <time>2014-08-10T13:10:54Z</time>
      </trkpt>
      <trkpt lat="41.93558" lon="9.13651">
        <ele>657.77</ele>
        <time>2014-08-10T13:11:15Z</time>
      </trkpt>
      <trkpt lat="41.93553" lon="9.13638">
        <ele>659.78</ele>
        <time>2014-08-10T13:11:35Z</time>
      </trkpt>
      <trkpt lat="41.93549" lon="9.13631">
        <ele>661.18</ele>
        <time>2014-08-10T13:12:00Z</time>
      </trkpt>
      <trkpt lat="41.93546" lon="9.13617">
        <ele>663.06</ele>
        <time>2014-08-10T13:12:22Z</time>
      </trkpt>
      <trkpt lat="41.93541" lon="9.13597">
        <ele>666.07</ele>
        <time>2014-08-10T13:12:43Z</time>
      </trkpt>
      <trkpt lat="41.93541" lon="9.13588">
        <ele>666.78</ele>
        <time>2014-08-10T13:12:50Z</time>
      </trkpt>
      <trkpt lat="41.93549" lon="9.13567">
        <ele>665.58</ele>
        <time>2014-08-10T13:13:10Z</time>
      </trkpt>
      <trkpt lat="41.93554" lon="9.13555">
        <ele>663.54</ele>
        <time>2014-08-10T13:13:27Z</time>
      </trkpt>
      <trkpt lat="41.93559" lon="9.1354">
        <ele>660.72</ele>
        <time>2014-08-10T13:13:46Z</time>
      </trkpt>
      <trkpt lat="41.93566" lon="9.13529">
        <ele>657.84</ele>
        <time>2014-08-10T13:14:01Z</time>
      </trkpt>
      <trkpt lat="41.93574" lon="9.13513">
        <ele>655.2</ele>
        <time>2014-08-10T13:14:21Z</time>
      </trkpt>
      <trkpt lat="41.93582" lon="9.135">
        <ele>653.18</ele>
        <time>2014-08-10T13:14:37Z</time>
      </trkpt>
      <trkpt lat="41.93589" lon="9.13482">
        <ele>650.11</ele>
        <time>2014-08-10T13:14:57Z</time>
      </trkpt>
      <trkpt lat="41.93594" lon="9.13473">
        <ele>648.72</ele>
        <time>2014-08-10T13:15:09Z</time>
      </trkpt>
      <trkpt lat="41.93596" lon="9.13459">
        <ele>646.19</ele>
        <time>2014-08-10T13:15:26Z</time>
      </trkpt>
      <trkpt lat="41.936" lon="9.13449">
        <ele>644.86</ele>
        <time>2014-08-10T13:15:35Z</time>
      </trkpt>
      <trkpt lat="41.93607" lon="9.13438">
        <ele>643.46</ele>
        <time>2014-08-10T13:15:45Z</time>
      </trkpt>
      <trkpt lat="41.93614" lon="9.13427">
        <ele>642.95</ele>
        <time>2014-08-10T13:16:01Z</time>
      </trkpt>
      <trkpt lat="41.93614" lon="9.13424">
        <ele>644.06</ele>
        <time>2014-08-10T13:16:23Z</time>
      </trkpt>
      <trkpt lat="41.93617" lon="9.13425">
        <ele>643.91</ele>
        <time>2014-08-10T13:16:49Z</time>
      </trkpt>
      <trkpt lat="41.93614" lon="9.13423">
        <ele>644.08</ele>
        <time>2014-08-10T13:17:18Z</time>
      </trkpt>
      <trkpt lat="41.93617" lon="9.13416">
        <ele>644.85</ele>
        <time>2014-08-10T13:17:46Z</time>
      </trkpt>
      <trkpt lat="41.93615" lon="9.13406">
        <ele>646.22</ele>
        <time>2014-08-10T13:17:56Z</time>
      </trkpt>
      <trkpt lat="41.93608" lon="9.13387">
        <ele>647.21</ele>
        <time>2014-08-10T13:18:11Z</time>
      </trkpt>
      <trkpt lat="41.93601" lon="9.13365">
        <ele>647.56</ele>
        <time>2014-08-10T13:18:27Z</time>
      </trkpt>
      <trkpt lat="41.93593" lon="9.13343">
        <ele>647.31</ele>
        <time>2014-08-10T13:18:43Z</time>
      </trkpt>
      <trkpt lat="41.9359" lon="9.13334">
        <ele>647</ele>
        <time>2014-08-10T13:18:53Z</time>
      </trkpt>
      <trkpt lat="41.93595" lon="9.13332">
        <ele>646.98</ele>
        <time>2014-08-10T13:19:12Z</time>
      </trkpt>
      <trkpt lat="41.93598" lon="9.13336">
        <ele>647.29</ele>
        <time>2014-08-10T13:19:44Z</time>
      </trkpt>
      <trkpt lat="41.93602" lon="9.13332">
        <ele>647.04</ele>
        <time>2014-08-10T13:19:53Z</time>
      </trkpt>
      <trkpt lat="41.93618" lon="9.13319">
        <ele>647.29</ele>
        <time>2014-08-10T13:20:12Z</time>
      </trkpt>
      <trkpt lat="41.9362" lon="9.13314">
        <ele>647.28</ele>
        <time>2014-08-10T13:20:32Z</time>
      </trkpt>
      <trkpt lat="41.93625" lon="9.13309">
        <ele>647.5</ele>
        <time>2014-08-10T13:20:48Z</time>
      </trkpt>
      <trkpt lat="41.93635" lon="9.13294">
        <ele>647.12</ele>
        <time>2014-08-10T13:21:04Z</time>
      </trkpt>
      <trkpt lat="41.93648" lon="9.13281">
        <ele>647.53</ele>
        <time>2014-08-10T13:21:21Z</time>
      </trkpt>
      <trkpt lat="41.93648" lon="9.13276">
        <ele>647.75</ele>
        <time>2014-08-10T13:21:46Z</time>
      </trkpt>
      <trkpt lat="41.93647" lon="9.13278">
        <ele>647</ele>
        <time>2014-08-10T13:22:14Z</time>
      </trkpt>
      <trkpt lat="41.93639" lon="9.13287">
        <ele>647.24</ele>
        <time>2014-08-10T13:22:32Z</time>
      </trkpt>
      <trkpt lat="41.93632" lon="9.13296">
        <ele>646.94</ele>
        <time>2014-08-10T13:22:42Z</time>
      </trkpt>
      <trkpt lat="41.9362" lon="9.13316">
        <ele>647.28</ele>
        <time>2014-08-10T13:22:59Z</time>
      </trkpt>
      <trkpt lat="41.9361" lon="9.13325">
        <ele>647.74</ele>
        <time>2014-08-10T13:23:12Z</time>
      </trkpt>
      <trkpt lat="41.93596" lon="9.13343">
        <ele>647.39</ele>
        <time>2014-08-10T13:23:29Z</time>
      </trkpt>
      <trkpt lat="41.93596" lon="9.13346">
        <ele>647.43</ele>
        <time>2014-08-10T13:23:31Z</time>
      </trkpt>
      <trkpt lat="41.93598" lon="9.13352">
        <ele>647.42</ele>
        <time>2014-08-10T13:23:35Z</time>
      </trkpt>
      <trkpt lat="41.93604" lon="9.13372">
        <ele>647.58</ele>
        <time>2014-08-10T13:23:50Z</time>
      </trkpt>
      <trkpt lat="41.93609" lon="9.13389">
        <ele>647.2</ele>
        <time>2014-08-10T13:24:02Z</time>
      </trkpt>
      <trkpt lat="41.93611" lon="9.13396">
        <ele>646.99</ele>
        <time>2014-08-10T13:24:07Z</time>
      </trkpt>
      <trkpt lat="41.93619" lon="9.13411">
        <ele>646.85</ele>
        <time>2014-08-10T13:24:22Z</time>
      </trkpt>
      <trkpt lat="41.9362" lon="9.13421">
        <ele>645.95</ele>
        <time>2014-08-10T13:24:52Z</time>
      </trkpt>
      <trkpt lat="41.93613" lon="9.13432">
        <ele>644</ele>
        <time>2014-08-10T13:25:11Z</time>
      </trkpt>
      <trkpt lat="41.93614" lon="9.13437">
        <ele>642.72</ele>
        <time>2014-08-10T13:25:34Z</time>
      </trkpt>
      <trkpt lat="41.93611" lon="9.13439">
        <ele>642.59</ele>
        <time>2014-08-10T13:25:59Z</time>
      </trkpt>
      <trkpt lat="41.93622" lon="9.13445">
        <ele>642.48</ele>
        <time>2014-08-10T13:26:16Z</time>
      </trkpt>
      <trkpt lat="41.93627" lon="9.1345">
        <ele>643.38</ele>
        <time>2014-08-10T13:26:30Z</time>
      </trkpt>
      <trkpt lat="41.93629" lon="9.13452">
        <ele>644.92</ele>
        <time>2014-08-10T13:26:37Z</time>
      </trkpt>
      <trkpt lat="41.93647" lon="9.13455">
        <ele>647.99</ele>
        <time>2014-08-10T13:27:03Z</time>
      </trkpt>
      <trkpt lat="41.93661" lon="9.13451">
        <ele>648.89</ele>
        <time>2014-08-10T13:27:19Z</time>
      </trkpt>
      <trkpt lat="41.93676" lon="9.13441">
        <ele>650.01</ele>
        <time>2014-08-10T13:27:41Z</time>
      </trkpt>
      <trkpt lat="41.93682" lon="9.13434">
        <ele>649.59</ele>
        <time>2014-08-10T13:27:56Z</time>
      </trkpt>
      <trkpt lat="41.93682" lon="9.13427">
        <ele>650.04</ele>
        <time>2014-08-10T13:28:11Z</time>
      </trkpt>
      <trkpt lat="41.93683" lon="9.13417">
        <ele>652.74</ele>
        <time>2014-08-10T13:28:29Z</time>
      </trkpt>
      <trkpt lat="41.93684" lon="9.13407">
        <ele>655.88</ele>
        <time>2014-08-10T13:28:48Z</time>
      </trkpt>
      <trkpt lat="41.93687" lon="9.13397">
        <ele>657.65</ele>
        <time>2014-08-10T13:29:12Z</time>
      </trkpt>
      <trkpt lat="41.93687" lon="9.13387">
        <ele>660.28</ele>
        <time>2014-08-10T13:29:30Z</time>
      </trkpt>
      <trkpt lat="41.93688" lon="9.13379">
        <ele>662.86</ele>
        <time>2014-08-10T13:29:49Z</time>
      </trkpt>
      <trkpt lat="41.9369" lon="9.13375">
        <ele>664.17</ele>
        <time>2014-08-10T13:29:58Z</time>
      </trkpt>
      <trkpt lat="41.93699" lon="9.13359">
        <ele>666.92</ele>
        <time>2014-08-10T13:30:19Z</time>
      </trkpt>
      <trkpt lat="41.93698" lon="9.13362">
        <ele>666.93</ele>
        <time>2014-08-10T13:30:39Z</time>
      </trkpt>
      <trkpt lat="41.93702" lon="9.1336">
        <ele>666.51</ele>
        <time>2014-08-10T13:31:17Z</time>
      </trkpt>
      <trkpt lat="41.93699" lon="9.13358">
        <ele>666.11</ele>
        <time>2014-08-10T13:31:48Z</time>
      </trkpt>
      <trkpt lat="41.93705" lon="9.13359">
        <ele>665.54</ele>
        <time>2014-08-10T13:32:35Z</time>
      </trkpt>
      <trkpt lat="41.93704" lon="9.13355">
        <ele>666.05</ele>
        <time>2014-08-10T13:33:09Z</time>
      </trkpt>
      <trkpt lat="41.93705" lon="9.13356">
        <ele>666.55</ele>
        <time>2014-08-10T13:33:39Z</time>
      </trkpt>
      <trkpt lat="41.93715" lon="9.13356">
        <ele>667.45</ele>
        <time>2014-08-10T13:34:01Z</time>
      </trkpt>
      <trkpt lat="41.93723" lon="9.13342">
        <ele>668.61</ele>
        <time>2014-08-10T13:34:23Z</time>
      </trkpt>
      <trkpt lat="41.93733" lon="9.13326">
        <ele>670.53</ele>
        <time>2014-08-10T13:34:45Z</time>
      </trkpt>
      <trkpt lat="41.9374" lon="9.13316">
        <ele>672.72</ele>
        <time>2014-08-10T13:35:06Z</time>
      </trkpt>
      <trkpt lat="41.93743" lon="9.13308">
        <ele>674.44</ele>
        <time>2014-08-10T13:35:25Z</time>
      </trkpt>
      <trkpt lat="41.93746" lon="9.13303">
        <ele>675.73</ele>
        <time>2014-08-10T13:35:46Z</time>
      </trkpt>
      <trkpt lat="41.93749" lon="9.13297">
        <ele>676.87</ele>
        <time>2014-08-10T13:36:05Z</time>
      </trkpt>
      <trkpt lat="41.93753" lon="9.13292">
        <ele>678.38</ele>
        <time>2014-08-10T13:36:26Z</time>
      </trkpt>
      <trkpt lat="41.93758" lon="9.13287">
        <ele>681.32</ele>
        <time>2014-08-10T13:36:43Z</time>
      </trkpt>
      <trkpt lat="41.93764" lon="9.13278">
        <ele>683.9</ele>
        <time>2014-08-10T13:37:03Z</time>
      </trkpt>
      <trkpt lat="41.93767" lon="9.1327">
        <ele>686.02</ele>
        <time>2014-08-10T13:37:25Z</time>
      </trkpt>
      <trkpt lat="41.93764" lon="9.13255">
        <ele>685.91</ele>
        <time>2014-08-10T13:37:47Z</time>
      </trkpt>
      <trkpt lat="41.93763" lon="9.13247">
        <ele>685.47</ele>
        <time>2014-08-10T13:38:01Z</time>
      </trkpt>
      <trkpt lat="41.93763" lon="9.13236">
        <ele>683.99</ele>
        <time>2014-08-10T13:38:22Z</time>
      </trkpt>
      <trkpt lat="41.93764" lon="9.13227">
        <ele>682.25</ele>
        <time>2014-08-10T13:38:42Z</time>
      </trkpt>
      <trkpt lat="41.93766" lon="9.13216">
        <ele>679.9</ele>
        <time>2014-08-10T13:39:00Z</time>
      </trkpt>
      <trkpt lat="41.93773" lon="9.13212">
        <ele>678.81</ele>
        <time>2014-08-10T13:39:13Z</time>
      </trkpt>
      <trkpt lat="41.9378" lon="9.1321">
        <ele>678.64</ele>
        <time>2014-08-10T13:39:19Z</time>
      </trkpt>
      <trkpt lat="41.93783" lon="9.13209">
        <ele>678.67</ele>
        <time>2014-08-10T13:39:21Z</time>
      </trkpt>
      <trkpt lat="41.93788" lon="9.13206">
        <ele>678.82</ele>
        <time>2014-08-10T13:39:26Z</time>
      </trkpt>
      <trkpt lat="41.9379" lon="9.13205">
        <ele>678.86</ele>
        <time>2014-08-10T13:39:28Z</time>
      </trkpt>
      <trkpt lat="41.93799" lon="9.13199">
        <ele>678.82</ele>
        <time>2014-08-10T13:39:38Z</time>
      </trkpt>
      <trkpt lat="41.93808" lon="9.13191">
        <ele>678.09</ele>
        <time>2014-08-10T13:39:50Z</time>
      </trkpt>
      <trkpt lat="41.93819" lon="9.13175">
        <ele>677.27</ele>
        <time>2014-08-10T13:40:05Z</time>
      </trkpt>
      <trkpt lat="41.9382" lon="9.1317">
        <ele>676.54</ele>
        <time>2014-08-10T13:40:15Z</time>
      </trkpt>
      <trkpt lat="41.93832" lon="9.1316">
        <ele>675.84</ele>
        <time>2014-08-10T13:40:34Z</time>
      </trkpt>
      <trkpt lat="41.93834" lon="9.13158">
        <ele>675.52</ele>
        <time>2014-08-10T13:40:37Z</time>
      </trkpt>
      <trkpt lat="41.9384" lon="9.13149">
        <ele>674.96</ele>
        <time>2014-08-10T13:40:45Z</time>
      </trkpt>
      <trkpt lat="41.93845" lon="9.13142">
        <ele>674.59</ele>
        <time>2014-08-10T13:40:55Z</time>
      </trkpt>
      <trkpt lat="41.93847" lon="9.13142">
        <ele>674.44</ele>
        <time>2014-08-10T13:40:58Z</time>
      </trkpt>
      <trkpt lat="41.93852" lon="9.13138">
        <ele>674.05</ele>
        <time>2014-08-10T13:41:04Z</time>
      </trkpt>
      <trkpt lat="41.93857" lon="9.13127">
        <ele>673.36</ele>
        <time>2014-08-10T13:41:14Z</time>
      </trkpt>
      <trkpt lat="41.9387" lon="9.13117">
        <ele>673.02</ele>
        <time>2014-08-10T13:41:32Z</time>
      </trkpt>
      <trkpt lat="41.93878" lon="9.13117">
        <ele>673.04</ele>
        <time>2014-08-10T13:42:07Z</time>
      </trkpt>
      <trkpt lat="41.93879" lon="9.13119">
        <ele>673.34</ele>
        <time>2014-08-10T13:42:32Z</time>
      </trkpt>
      <trkpt lat="41.9388" lon="9.13117">
        <ele>673.57</ele>
        <time>2014-08-10T13:42:34Z</time>
      </trkpt>
      <trkpt lat="41.93881" lon="9.13111">
        <ele>676.79</ele>
        <time>2014-08-10T13:42:57Z</time>
      </trkpt>
      <trkpt lat="41.9389" lon="9.13099">
        <ele>679.89</ele>
        <time>2014-08-10T13:43:27Z</time>
      </trkpt>
      <trkpt lat="41.9389" lon="9.13098">
        <ele>680.03</ele>
        <time>2014-08-10T13:43:28Z</time>
      </trkpt>
      <trkpt lat="41.93892" lon="9.13099">
        <ele>682.36</ele>
        <time>2014-08-10T13:43:53Z</time>
      </trkpt>
      <trkpt lat="41.93885" lon="9.13092">
        <ele>682.79</ele>
        <time>2014-08-10T13:44:19Z</time>
      </trkpt>
      <trkpt lat="41.93883" lon="9.13092">
        <ele>682.83</ele>
        <time>2014-08-10T13:44:23Z</time>
      </trkpt>
      <trkpt lat="41.93895" lon="9.13088">
        <ele>683.01</ele>
        <time>2014-08-10T13:45:31Z</time>
      </trkpt>
      <trkpt lat="41.93894" lon="9.13087">
        <ele>682.99</ele>
        <time>2014-08-10T13:45:59Z</time>
      </trkpt>
      <trkpt lat="41.93889" lon="9.13095">
        <ele>682.82</ele>
        <time>2014-08-10T13:46:54Z</time>
      </trkpt>
      <trkpt lat="41.93889" lon="9.1309">
        <ele>682.96</ele>
        <time>2014-08-10T13:47:47Z</time>
      </trkpt>
      <trkpt lat="41.9388" lon="9.13098">
        <ele>683.51</ele>
        <time>2014-08-10T13:48:30Z</time>
      </trkpt>
      <trkpt lat="41.93883" lon="9.131">
        <ele>683.62</ele>
        <time>2014-08-10T13:49:00Z</time>
      </trkpt>
      <trkpt lat="41.93879" lon="9.13098">
        <ele>686.09</ele>
        <time>2014-08-10T13:49:34Z</time>
      </trkpt>
      <trkpt lat="41.93888" lon="9.13091">
        <ele>688.25</ele>
        <time>2014-08-10T13:49:51Z</time>
      </trkpt>
      <trkpt lat="41.9389" lon="9.13087">
        <ele>690.33</ele>
        <time>2014-08-10T13:50:09Z</time>
      </trkpt>
      <trkpt lat="41.93892" lon="9.1308">
        <ele>691.66</ele>
        <time>2014-08-10T13:50:29Z</time>
      </trkpt>
      <trkpt lat="41.93896" lon="9.13076">
        <ele>692.57</ele>
        <time>2014-08-10T13:50:36Z</time>
      </trkpt>
      <trkpt lat="41.93905" lon="9.1307">
        <ele>694.83</ele>
        <time>2014-08-10T13:50:51Z</time>
      </trkpt>
      <trkpt lat="41.9391" lon="9.13062">
        <ele>696.42</ele>
        <time>2014-08-10T13:51:07Z</time>
      </trkpt>
      <trkpt lat="41.93915" lon="9.13062">
        <ele>696.75</ele>
        <time>2014-08-10T13:51:16Z</time>
      </trkpt>
      <trkpt lat="41.93923" lon="9.1306">
        <ele>697.72</ele>
        <time>2014-08-10T13:51:32Z</time>
      </trkpt>
      <trkpt lat="41.93922" lon="9.13062">
        <ele>698.12</ele>
        <time>2014-08-10T13:51:38Z</time>
      </trkpt>
      <trkpt lat="41.93922" lon="9.13061">
        <ele>698.29</ele>
        <time>2014-08-10T13:51:42Z</time>
      </trkpt>
      <trkpt lat="41.93925" lon="9.13059">
        <ele>699.24</ele>
        <time>2014-08-10T13:52:03Z</time>
      </trkpt>
      <trkpt lat="41.93929" lon="9.13051">
        <ele>701.02</ele>
        <time>2014-08-10T13:52:18Z</time>
      </trkpt>
      <trkpt lat="41.93928" lon="9.13044">
        <ele>702.09</ele>
        <time>2014-08-10T13:52:48Z</time>
      </trkpt>
      <trkpt lat="41.93931" lon="9.13033">
        <ele>705.12</ele>
        <time>2014-08-10T13:53:12Z</time>
      </trkpt>
      <trkpt lat="41.93931" lon="9.13033">
        <ele>705.16</ele>
        <time>2014-08-10T13:53:13Z</time>
      </trkpt>
      <trkpt lat="41.93934" lon="9.13026">
        <ele>707.82</ele>
        <time>2014-08-10T13:53:37Z</time>
      </trkpt>
      <trkpt lat="41.93943" lon="9.13013">
        <ele>710.54</ele>
        <time>2014-08-10T13:54:01Z</time>
      </trkpt>
      <trkpt lat="41.93945" lon="9.13011">
        <ele>711.07</ele>
        <time>2014-08-10T13:54:04Z</time>
      </trkpt>
      <trkpt lat="41.9395" lon="9.13002">
        <ele>713.79</ele>
        <time>2014-08-10T13:54:23Z</time>
      </trkpt>
      <trkpt lat="41.93951" lon="9.12997">
        <ele>714.67</ele>
        <time>2014-08-10T13:54:28Z</time>
      </trkpt>
      <trkpt lat="41.93952" lon="9.12992">
        <ele>715.43</ele>
        <time>2014-08-10T13:54:35Z</time>
      </trkpt>
      <trkpt lat="41.93956" lon="9.12982">
        <ele>716.66</ele>
        <time>2014-08-10T13:54:45Z</time>
      </trkpt>
      <trkpt lat="41.93957" lon="9.12971">
        <ele>718.05</ele>
        <time>2014-08-10T13:54:57Z</time>
      </trkpt>
      <trkpt lat="41.93961" lon="9.12969">
        <ele>718.67</ele>
        <time>2014-08-10T13:55:05Z</time>
      </trkpt>
      <trkpt lat="41.93965" lon="9.12966">
        <ele>718.57</ele>
        <time>2014-08-10T13:55:37Z</time>
      </trkpt>
      <trkpt lat="41.93968" lon="9.12965">
        <ele>718.71</ele>
        <time>2014-08-10T13:55:53Z</time>
      </trkpt>
      <trkpt lat="41.93977" lon="9.12972">
        <ele>719.19</ele>
        <time>2014-08-10T13:56:24Z</time>
      </trkpt>
      <trkpt lat="41.9398" lon="9.12971">
        <ele>719.05</ele>
        <time>2014-08-10T13:56:36Z</time>
      </trkpt>
      <trkpt lat="41.93975" lon="9.12964">
        <ele>719.94</ele>
        <time>2014-08-10T13:56:53Z</time>
      </trkpt>
      <trkpt lat="41.93977" lon="9.12954">
        <ele>722.43</ele>
        <time>2014-08-10T13:57:11Z</time>
      </trkpt>
      <trkpt lat="41.93983" lon="9.12947">
        <ele>724.12</ele>
        <time>2014-08-10T13:57:24Z</time>
      </trkpt>
      <trkpt lat="41.93988" lon="9.1294">
        <ele>726.59</ele>
        <time>2014-08-10T13:57:43Z</time>
      </trkpt>
      <trkpt lat="41.93991" lon="9.12934">
        <ele>729.57</ele>
        <time>2014-08-10T13:58:05Z</time>
      </trkpt>
      <trkpt lat="41.93992" lon="9.12934">
        <ele>729.76</ele>
        <time>2014-08-10T13:58:09Z</time>
      </trkpt>
      <trkpt lat="41.93991" lon="9.12927">
        <ele>730.68</ele>
        <time>2014-08-10T13:58:21Z</time>
      </trkpt>
      <trkpt lat="41.93989" lon="9.12923">
        <ele>731.11</ele>
        <time>2014-08-10T13:58:26Z</time>
      </trkpt>
      <trkpt lat="41.93989" lon="9.12919">
        <ele>733.39</ele>
        <time>2014-08-10T13:58:43Z</time>
      </trkpt>
      <trkpt lat="41.93992" lon="9.12919">
        <ele>733.42</ele>
        <time>2014-08-10T13:58:53Z</time>
      </trkpt>
      <trkpt lat="41.93993" lon="9.12919">
        <ele>733.16</ele>
        <time>2014-08-10T13:59:22Z</time>
      </trkpt>
      <trkpt lat="41.93999" lon="9.12914">
        <ele>733.2</ele>
        <time>2014-08-10T13:59:57Z</time>
      </trkpt>
      <trkpt lat="41.94004" lon="9.12907">
        <ele>733.28</ele>
        <time>2014-08-10T14:00:12Z</time>
      </trkpt>
      <trkpt lat="41.94002" lon="9.12894">
        <ele>734.67</ele>
        <time>2014-08-10T14:00:28Z</time>
      </trkpt>
      <trkpt lat="41.94" lon="9.12883">
        <ele>736.3</ele>
        <time>2014-08-10T14:00:43Z</time>
      </trkpt>
      <trkpt lat="41.94004" lon="9.12878">
        <ele>737.44</ele>
        <time>2014-08-10T14:00:53Z</time>
      </trkpt>
      <trkpt lat="41.94006" lon="9.12877">
        <ele>737.71</ele>
        <time>2014-08-10T14:00:55Z</time>
      </trkpt>
      <trkpt lat="41.9401" lon="9.12868">
        <ele>739.25</ele>
        <time>2014-08-10T14:01:12Z</time>
      </trkpt>
      <trkpt lat="41.94012" lon="9.12863">
        <ele>740.32</ele>
        <time>2014-08-10T14:01:29Z</time>
      </trkpt>
      <trkpt lat="41.94011" lon="9.1285">
        <ele>742.94</ele>
        <time>2014-08-10T14:01:49Z</time>
      </trkpt>
      <trkpt lat="41.94011" lon="9.12849">
        <ele>743.43</ele>
        <time>2014-08-10T14:01:53Z</time>
      </trkpt>
      <trkpt lat="41.94007" lon="9.12835">
        <ele>746.16</ele>
        <time>2014-08-10T14:02:17Z</time>
      </trkpt>
      <trkpt lat="41.94008" lon="9.12825">
        <ele>748.18</ele>
        <time>2014-08-10T14:02:36Z</time>
      </trkpt>
      <trkpt lat="41.94019" lon="9.12824">
        <ele>749.3</ele>
        <time>2014-08-10T14:03:01Z</time>
      </trkpt>
      <trkpt lat="41.94023" lon="9.12821">
        <ele>749.72</ele>
        <time>2014-08-10T14:03:07Z</time>
      </trkpt>
      <trkpt lat="41.94028" lon="9.12816">
        <ele>752.26</ele>
        <time>2014-08-10T14:03:23Z</time>
      </trkpt>
      <trkpt lat="41.94029" lon="9.12815">
        <ele>752.59</ele>
        <time>2014-08-10T14:03:25Z</time>
      </trkpt>
      <trkpt lat="41.9403" lon="9.12818">
        <ele>753.57</ele>
        <time>2014-08-10T14:03:47Z</time>
      </trkpt>
      <trkpt lat="41.94041" lon="9.12828">
        <ele>752.87</ele>
        <time>2014-08-10T14:04:12Z</time>
      </trkpt>
      <trkpt lat="41.94056" lon="9.12833">
        <ele>754.47</ele>
        <time>2014-08-10T14:04:31Z</time>
      </trkpt>
      <trkpt lat="41.94065" lon="9.12832">
        <ele>755.26</ele>
        <time>2014-08-10T14:05:01Z</time>
      </trkpt>
      <trkpt lat="41.94065" lon="9.1283">
        <ele>755.54</ele>
        <time>2014-08-10T14:05:06Z</time>
      </trkpt>
      <trkpt lat="41.94076" lon="9.12834">
        <ele>757.43</ele>
        <time>2014-08-10T14:05:21Z</time>
      </trkpt>
      <trkpt lat="41.9408" lon="9.12833">
        <ele>758.28</ele>
        <time>2014-08-10T14:06:03Z</time>
      </trkpt>
      <trkpt lat="41.94088" lon="9.12843">
        <ele>760.6</ele>
        <time>2014-08-10T14:06:42Z</time>
      </trkpt>
      <trkpt lat="41.94097" lon="9.12851">
        <ele>762.79</ele>
        <time>2014-08-10T14:06:55Z</time>
      </trkpt>
      <trkpt lat="41.94109" lon="9.1285">
        <ele>765.35</ele>
        <time>2014-08-10T14:07:12Z</time>
      </trkpt>
      <trkpt lat="41.9412" lon="9.12833">
        <ele>768.24</ele>
        <time>2014-08-10T14:07:32Z</time>
      </trkpt>
      <trkpt lat="41.94125" lon="9.12827">
        <ele>769.77</ele>
        <time>2014-08-10T14:07:42Z</time>
      </trkpt>
      <trkpt lat="41.94133" lon="9.12818">
        <ele>771.64</ele>
        <time>2014-08-10T14:08:12Z</time>
      </trkpt>
      <trkpt lat="41.94142" lon="9.12815">
        <ele>772.74</ele>
        <time>2014-08-10T14:08:26Z</time>
      </trkpt>
      <trkpt lat="41.94152" lon="9.12816">
        <ele>773.46</ele>
        <time>2014-08-10T14:08:41Z</time>
      </trkpt>
      <trkpt lat="41.94165" lon="9.1281">
        <ele>773.4</ele>
        <time>2014-08-10T14:08:56Z</time>
      </trkpt>
      <trkpt lat="41.94176" lon="9.12807">
        <ele>773.58</ele>
        <time>2014-08-10T14:09:08Z</time>
      </trkpt>
      <trkpt lat="41.94181" lon="9.12804">
        <ele>773.71</ele>
        <time>2014-08-10T14:09:13Z</time>
      </trkpt>
      <trkpt lat="41.94193" lon="9.12784">
        <ele>774.34</ele>
        <time>2014-08-10T14:09:31Z</time>
      </trkpt>
      <trkpt lat="41.94194" lon="9.12767">
        <ele>774.81</ele>
        <time>2014-08-10T14:09:45Z</time>
      </trkpt>
      <trkpt lat="41.94194" lon="9.12763">
        <ele>774.98</ele>
        <time>2014-08-10T14:09:48Z</time>
      </trkpt>
      <trkpt lat="41.94198" lon="9.12745">
        <ele>775.34</ele>
        <time>2014-08-10T14:10:02Z</time>
      </trkpt>
      <trkpt lat="41.94202" lon="9.1273">
        <ele>777.35</ele>
        <time>2014-08-10T14:10:24Z</time>
      </trkpt>
      <trkpt lat="41.94205" lon="9.1272">
        <ele>778.53</ele>
        <time>2014-08-10T14:10:48Z</time>
      </trkpt>
      <trkpt lat="41.94215" lon="9.12704">
        <ele>780.74</ele>
        <time>2014-08-10T14:11:08Z</time>
      </trkpt>
      <trkpt lat="41.94245" lon="9.12445">
        <ele>809.67</ele>
        <time>2014-08-10T14:16:17Z</time>
      </trkpt>
      <trkpt lat="41.94248" lon="9.12446">
        <ele>810.98</ele>
        <time>2014-08-10T14:16:18Z</time>
      </trkpt>
      <trkpt lat="41.94245" lon="9.12443">
        <ele>810.99</ele>
        <time>2014-08-10T14:16:22Z</time>
      </trkpt>
      <trkpt lat="41.94249" lon="9.12446">
        <ele>810.75</ele>
        <time>2014-08-10T14:16:54Z</time>
      </trkpt>
      <trkpt lat="41.94248" lon="9.12447">
        <ele>811.16</ele>
        <time>2014-08-10T14:17:22Z</time>
      </trkpt>
      <trkpt lat="41.93299" lon="9.11106">
        <ele>697.79</ele>
        <time>2014-08-10T14:44:54Z</time>
      </trkpt>
      <trkpt lat="41.9329" lon="9.11111">
        <ele>656.17</ele>
        <time>2014-08-10T14:44:55Z</time>
      </trkpt>
      <trkpt lat="41.93283" lon="9.11117">
        <ele>656.17</ele>
        <time>2014-08-10T14:44:56Z</time>
      </trkpt>
      <trkpt lat="41.93275" lon="9.11124">
        <ele>656.17</ele>
        <time>2014-08-10T14:44:57Z</time>
      </trkpt>
      <trkpt lat="41.93267" lon="9.11134">
        <ele>656.17</ele>
        <time>2014-08-10T14:44:58Z</time>
      </trkpt>
      <trkpt lat="41.93238" lon="9.11161">
        <ele>656.18</ele>
        <time>2014-08-10T14:45:01Z</time>
      </trkpt>
      <trkpt lat="41.93203" lon="9.1119">
        <ele>655.31</ele>
        <time>2014-08-10T14:45:05Z</time>
      </trkpt>
      <trkpt lat="41.93196" lon="9.11201">
        <ele>654.94</ele>
        <time>2014-08-10T14:45:06Z</time>
      </trkpt>
      <trkpt lat="41.9319" lon="9.11212">
        <ele>654.55</ele>
        <time>2014-08-10T14:45:07Z</time>
      </trkpt>
      <trkpt lat="41.93186" lon="9.11224">
        <ele>654.21</ele>
        <time>2014-08-10T14:45:08Z</time>
      </trkpt>
      <trkpt lat="41.93182" lon="9.11235">
        <ele>653.9</ele>
        <time>2014-08-10T14:45:09Z</time>
      </trkpt>
      <trkpt lat="41.93179" lon="9.11248">
        <ele>653.58</ele>
        <time>2014-08-10T14:45:10Z</time>
      </trkpt>
      <trkpt lat="41.93178" lon="9.11261">
        <ele>653.26</ele>
        <time>2014-08-10T14:45:11Z</time>
      </trkpt>
      <trkpt lat="41.93178" lon="9.11273">
        <ele>652.93</ele>
        <time>2014-08-10T14:45:12Z</time>
      </trkpt>
      <trkpt lat="41.93178" lon="9.11284">
        <ele>652.58</ele>
        <time>2014-08-10T14:45:13Z</time>
      </trkpt>
      <trkpt lat="41.93174" lon="9.113">
        <ele>651.87</ele>
        <time>2014-08-10T14:45:15Z</time>
      </trkpt>
      <trkpt lat="41.93169" lon="9.11305">
        <ele>651.52</ele>
        <time>2014-08-10T14:45:16Z</time>
      </trkpt>
      <trkpt lat="41.93165" lon="9.11308">
        <ele>651.19</ele>
        <time>2014-08-10T14:45:17Z</time>
      </trkpt>
      <trkpt lat="41.9316" lon="9.11308">
        <ele>650.86</ele>
        <time>2014-08-10T14:45:18Z</time>
      </trkpt>
      <trkpt lat="41.93155" lon="9.1131">
        <ele>650.47</ele>
        <time>2014-08-10T14:45:19Z</time>
      </trkpt>
      <trkpt lat="41.93148" lon="9.11312">
        <ele>650.07</ele>
        <time>2014-08-10T14:45:20Z</time>
      </trkpt>
      <trkpt lat="41.93134" lon="9.11319">
        <ele>649.4</ele>
        <time>2014-08-10T14:45:22Z</time>
      </trkpt>
      <trkpt lat="41.93128" lon="9.11327">
        <ele>649.12</ele>
        <time>2014-08-10T14:45:23Z</time>
      </trkpt>
      <trkpt lat="41.93125" lon="9.11336">
        <ele>648.86</ele>
        <time>2014-08-10T14:45:24Z</time>
      </trkpt>
      <trkpt lat="41.93123" lon="9.11346">
        <ele>648.62</ele>
        <time>2014-08-10T14:45:25Z</time>
      </trkpt>
      <trkpt lat="41.93121" lon="9.11358">
        <ele>648.4</ele>
        <time>2014-08-10T14:45:26Z</time>
      </trkpt>
      <trkpt lat="41.93111" lon="9.11392">
        <ele>647.54</ele>
        <time>2014-08-10T14:45:29Z</time>
      </trkpt>
      <trkpt lat="41.931" lon="9.11398">
        <ele>647.3</ele>
        <time>2014-08-10T14:45:30Z</time>
      </trkpt>
      <trkpt lat="41.93091" lon="9.11404">
        <ele>647.08</ele>
        <time>2014-08-10T14:45:31Z</time>
      </trkpt>
      <trkpt lat="41.93082" lon="9.11408">
        <ele>646.79</ele>
        <time>2014-08-10T14:45:32Z</time>
      </trkpt>
      <trkpt lat="41.93072" lon="9.11412">
        <ele>646.41</ele>
        <time>2014-08-10T14:45:33Z</time>
      </trkpt>
      <trkpt lat="41.93062" lon="9.11415">
        <ele>645.98</ele>
        <time>2014-08-10T14:45:34Z</time>
      </trkpt>
      <trkpt lat="41.93051" lon="9.11423">
        <ele>645.54</ele>
        <time>2014-08-10T14:45:35Z</time>
      </trkpt>
      <trkpt lat="41.92984" lon="9.11474">
        <ele>643.53</ele>
        <time>2014-08-10T14:45:41Z</time>
      </trkpt>
      <trkpt lat="41.92975" lon="9.11479">
        <ele>643.01</ele>
        <time>2014-08-10T14:45:42Z</time>
      </trkpt>
      <trkpt lat="41.92966" lon="9.11479">
        <ele>642.35</ele>
        <time>2014-08-10T14:45:43Z</time>
      </trkpt>
      <trkpt lat="41.92958" lon="9.11477">
        <ele>641.48</ele>
        <time>2014-08-10T14:45:44Z</time>
      </trkpt>
      <trkpt lat="41.9295" lon="9.11473">
        <ele>640.57</ele>
        <time>2014-08-10T14:45:45Z</time>
      </trkpt>
      <trkpt lat="41.92932" lon="9.11468">
        <ele>638.93</ele>
        <time>2014-08-10T14:45:47Z</time>
      </trkpt>
      <trkpt lat="41.92924" lon="9.11472">
        <ele>638.12</ele>
        <time>2014-08-10T14:45:48Z</time>
      </trkpt>
      <trkpt lat="41.92919" lon="9.11481">
        <ele>637.23</ele>
        <time>2014-08-10T14:45:49Z</time>
      </trkpt>
      <trkpt lat="41.92912" lon="9.11489">
        <ele>636.3</ele>
        <time>2014-08-10T14:45:50Z</time>
      </trkpt>
      <trkpt lat="41.92911" lon="9.11499">
        <ele>635.44</ele>
        <time>2014-08-10T14:45:51Z</time>
      </trkpt>
      <trkpt lat="41.92909" lon="9.11508">
        <ele>634.73</ele>
        <time>2014-08-10T14:45:52Z</time>
      </trkpt>
      <trkpt lat="41.92909" lon="9.11518">
        <ele>633.6</ele>
        <time>2014-08-10T14:45:53Z</time>
      </trkpt>
      <trkpt lat="41.92913" lon="9.11527">
        <ele>633.6</ele>
        <time>2014-08-10T14:45:54Z</time>
      </trkpt>
      <trkpt lat="41.92926" lon="9.11545">
        <ele>633.15</ele>
        <time>2014-08-10T14:45:55Z</time>
      </trkpt>
      <trkpt lat="41.92936" lon="9.11558">
        <ele>632.78</ele>
        <time>2014-08-10T14:45:56Z</time>
      </trkpt>
      <trkpt lat="41.92944" lon="9.11571">
        <ele>632.11</ele>
        <time>2014-08-10T14:45:57Z</time>
      </trkpt>
      <trkpt lat="41.92974" lon="9.1162">
        <ele>630.11</ele>
        <time>2014-08-10T14:46:01Z</time>
      </trkpt>
      <trkpt lat="41.92979" lon="9.11634">
        <ele>629.31</ele>
        <time>2014-08-10T14:46:02Z</time>
      </trkpt>
      <trkpt lat="41.92977" lon="9.11647">
        <ele>628.45</ele>
        <time>2014-08-10T14:46:03Z</time>
      </trkpt>
      <trkpt lat="41.92978" lon="9.11663">
        <ele>627.65</ele>
        <time>2014-08-10T14:46:04Z</time>
      </trkpt>
      <trkpt lat="41.92977" lon="9.11678">
        <ele>626.95</ele>
        <time>2014-08-10T14:46:05Z</time>
      </trkpt>
      <trkpt lat="41.92974" lon="9.11693">
        <ele>626.32</ele>
        <time>2014-08-10T14:46:06Z</time>
      </trkpt>
      <trkpt lat="41.92963" lon="9.11785">
        <ele>623.24</ele>
        <time>2014-08-10T14:46:12Z</time>
      </trkpt>
      <trkpt lat="41.92966" lon="9.11797">
        <ele>622.76</ele>
        <time>2014-08-10T14:46:13Z</time>
      </trkpt>
      <trkpt lat="41.92971" lon="9.11809">
        <ele>622.21</ele>
        <time>2014-08-10T14:46:14Z</time>
      </trkpt>
      <trkpt lat="41.92977" lon="9.11819">
        <ele>621.55</ele>
        <time>2014-08-10T14:46:15Z</time>
      </trkpt>
      <trkpt lat="41.92983" lon="9.11828">
        <ele>620.85</ele>
        <time>2014-08-10T14:46:16Z</time>
      </trkpt>
      <trkpt lat="41.92988" lon="9.11846">
        <ele>619.4</ele>
        <time>2014-08-10T14:46:18Z</time>
      </trkpt>
      <trkpt lat="41.9299" lon="9.11854">
        <ele>619.75</ele>
        <time>2014-08-10T14:46:19Z</time>
      </trkpt>
    </trkseg>
  </trk>
</gpx>